Cuchara, CO

5:56 AM MDT on June 03, 2015 (GMT -0600)
E Francisco St. | | Change Station
CLOSE
Current Station
Personal Weather Station
Location: La Veta, CO
Elevation: 7031 ft
Nearby Weather Stations

Elev 7031 ft 37.51 °N, 105.01 °W | Updated 14 minutes ago

Clear
Clear
45.3 °F
Feels Like 45 °F
N
0.0
Wind Variable Wind from West

Today
High -- | Low -- °F
--% Chance of Precip.
Yesterday
High -- | Low -- °F
Precip. -- in
5:40 AM 8:16 PM
Full, 99% visible
Pressure 29.74 in
Visibility 10.0 miles
Clouds Clear
Windchill 45 °F
Dew Point 32 °F
Humidity 59%
Rainfall 0.00 in
Snow Depth Not available.
UV 0 out of 12
Pollen 8.80 out of 12
Air Quality Not available.
Flu Activity Sporadic
METAR KTAD 031054Z AUTO 24008KT 10SM CLR 10/02 A2997 RMK AO2 SLP069 T01000017

More Conditions Fewer Conditions

Pressure 29.74 in
Visibility 10.0 miles
Clouds Clear
Windchill 45 °F
Dew Point 32 °F
Humidity 59%
Rainfall 0.00 in
Snow Depth Not available.
UV 0 out of 12
Pollen 8.80 out of 12
Air Quality Not available.
Flu Activity Sporadic
METAR KTAD 031054Z AUTO 24008KT 10SM CLR 10/02 A2997 RMK AO2 SLP069 T01000017

More Conditions Fewer Conditions

10-Day Weather Forecast

×

Almanac

Astronomy

Jun. 03, 2015 Rise Set
Actual Time
Civil Twilight
Nautical Twilight
Astronomical Twilight
Moon
Length of Visible Light
Length of Day
Tomorrow will be .
, % of the Moon is Illuminated

Today's Extremes

State Highs State Lows

Community

WunderPhotos

Upload Photos

1,826,205 photos uploaded!

WunderBlogs® & News

Nearby

Air Quality

  Air Quality AQ Index Pollutant
Not available.

Snow Depth

Station Depth Elevation

Earthquake Activity

City Distance Mag. Time & Date
Minimum magnitude displayed is 2.5.

Coastal Water Temperatures

Place Temperature

Stations

Nearby Weather Stations

Station Location Temp. Windchill Dew Point Humidity Wind Precip. Elev Updated Type